Haugan, Montana
Current Conditions -  °F | °C
As of 6:21 AM on Tuesday 21 Oct 2014 (Local Time) from KMLP Reporting Station
Light Rain Light Rain  
Wind Chill: 30°   Ceiling: 500
Heat Index: 36°   Visibility: 0.5mi
Dew Point: 36°   Wind: 8mph
Humidity: 100%   Direction: 320°NW
Pressure: 29.84"   Gusts: NA
Location:  47.39°N, 115.4°W
Report Text: KMLP 211221Z AUTO 32007KT 1/2SM -RA FG BKN005 OVC015 02/02 A2984 RMK AO2 P0001 T00220022
Loading
Personal Weather Stations






























Interactive Weather Map
Tropical Storm Tracking
New forecast layout! Learn more

10-Day Weather Forecast

Advertisements
Track Severe Weather on mobile